createdAt,value
2023-03-24T18:11:01.606Z,18.75
2023-03-24T18:11:12.665Z,18.72
2023-03-24T18:11:22.899Z,18.66
2023-03-24T18:11:32.922Z,18.60
2023-03-24T18:11:43.368Z,18.54
2023-03-24T18:11:53.141Z,18.46
2023-03-24T18:12:03.122Z,18.39
2023-03-24T18:12:13.463Z,18.29
2023-03-24T18:12:23.731Z,18.21
2023-03-24T18:12:34.878Z,18.10
2023-03-24T18:12:44.168Z,17.99
2023-03-24T18:12:55.826Z,17.94
2023-03-24T18:13:04.839Z,17.84
2023-03-24T18:13:14.253Z,17.77
2023-03-24T18:13:24.173Z,17.71
2023-03-24T18:13:44.379Z,17.57
2023-03-24T18:13:54.719Z,17.47
2023-03-24T18:14:04.888Z,17.40
2023-03-24T18:14:14.855Z,17.35
2023-03-24T18:14:25.878Z,17.25
2023-03-24T18:14:35.762Z,17.22
2023-03-24T18:14:45.351Z,17.17
2023-03-24T18:14:55.805Z,17.12
2023-03-24T18:15:05.462Z,17.10
2023-03-24T18:15:15.546Z,17.09
2023-03-24T18:15:25.940Z,17.06
2023-03-24T18:15:36.262Z,17.06
2023-03-24T18:15:45.926Z,17.05
2023-03-24T18:15:55.988Z,17.03
2023-03-24T18:16:17.682Z,17.03
2023-03-24T18:16:27.253Z,16.99
2023-03-24T18:16:33.180Z,16.96
2023-03-24T18:16:43.358Z,16.98
2023-03-24T18:16:53.399Z,16.96
2023-03-24T18:17:04.826Z,16.96
2023-03-24T18:17:15.140Z,16.95
2023-03-24T18:17:33.823Z,16.92
2023-03-24T18:17:43.921Z,16.90
2023-03-24T18:17:54.870Z,16.88
2023-03-24T18:18:04.244Z,16.87
2023-03-24T18:18:14.274Z,16.85
2023-03-24T18:18:24.631Z,16.87
2023-03-24T18:18:35.599Z,16.84
2023-03-24T18:18:45.692Z,16.84
2023-03-24T18:18:55.008Z,16.82
2023-03-24T18:19:05.082Z,16.84
2023-03-24T18:19:15.168Z,16.82
2023-03-24T18:19:25.223Z,16.82
2023-03-24T18:19:45.641Z,16.82
2023-03-24T18:19:56.029Z,16.81
2023-03-24T18:20:05.760Z,16.80
2023-03-24T18:20:15.917Z,16.80
2023-03-24T18:20:26.140Z,16.80
2023-03-24T18:20:36.211Z,16.80
2023-03-24T18:20:47.020Z,16.78
2023-03-24T18:20:56.409Z,16.77
2023-03-24T18:21:06.747Z,16.78
2023-03-24T18:21:17.479Z,16.77
2023-03-24T18:21:26.703Z,16.77
2023-03-24T18:21:37.080Z,16.73
2023-03-24T18:21:47.108Z,16.73
2023-03-24T18:21:57.308Z,16.75
2023-03-24T18:22:07.337Z,16.72
2023-03-24T18:22:27.664Z,16.72
2023-03-24T18:22:37.749Z,16.70
2023-03-24T18:22:47.656Z,16.69
2023-03-24T18:22:57.966Z,16.69
2023-03-24T18:23:08.230Z,16.69
2023-03-24T18:23:18.081Z,16.67
2023-03-24T18:23:28.298Z,16.67
2023-03-24T18:23:38.392Z,16.66
2023-03-24T18:23:48.435Z,16.65
2023-03-24T18:23:58.548Z,16.66
2023-03-24T18:24:08.827Z,16.67
2023-03-24T18:24:18.920Z,16.67
2023-03-24T18:24:28.927Z,16.66
2023-03-24T18:24:39.195Z,16.66
2023-03-24T18:24:49.223Z,16.65
2023-03-24T18:25:00.646Z,16.65
2023-03-24T18:25:09.566Z,16.63
2023-03-24T18:25:20.429Z,16.63
2023-03-24T18:25:29.866Z,16.62
2023-03-24T18:25:39.929Z,16.59
2023-03-24T18:25:49.971Z,16.57
2023-03-24T18:26:10.254Z,16.55
2023-03-24T18:26:20.432Z,16.54
2023-03-24T18:26:30.576Z,16.52
2023-03-24T18:26:40.621Z,16.52
2023-03-24T18:26:50.841Z,16.54
2023-03-24T18:27:00.974Z,16.52
2023-03-24T18:27:11.039Z,16.52
2023-03-24T18:27:21.152Z,16.51
2023-03-24T18:27:31.319Z,16.51
2023-03-24T18:27:41.413Z,16.51
2023-03-24T18:27:51.499Z,16.51
2023-03-24T18:28:01.633Z,16.51
2023-03-24T18:28:11.743Z,16.50
2023-03-24T18:28:21.750Z,16.50
2023-03-24T18:28:32.089Z,16.48
2023-03-24T18:28:42.400Z,16.48
2023-03-24T18:28:52.855Z,16.48
2023-03-24T18:29:02.417Z,16.50
2023-03-24T18:29:12.507Z,16.51
2023-03-24T18:29:22.722Z,16.51
2023-03-24T18:29:33.333Z,16.51
2023-03-24T18:29:42.926Z,16.51
2023-03-24T18:29:54.013Z,16.51
2023-03-24T18:30:03.200Z,16.50
2023-03-24T18:30:13.227Z,16.48
2023-03-24T18:30:23.390Z,16.48
2023-03-24T18:30:33.456Z,16.48
2023-03-24T18:30:43.584Z,16.48
2023-03-24T18:32:18.271Z,16.47
2023-03-24T18:32:32.098Z,16.48
2023-03-24T18:32:39.472Z,16.48
2023-03-24T18:32:49.324Z,16.48
2023-03-24T18:32:59.836Z,16.50
2023-03-24T18:33:09.729Z,16.48
2023-03-24T18:33:20.382Z,16.50
2023-03-24T18:33:40.034Z,16.51
2023-03-24T18:33:51.054Z,16.51
2023-03-24T18:34:01.169Z,16.50
2023-03-24T18:34:10.652Z,16.51
2023-03-24T18:34:21.495Z,16.55
2023-03-24T18:34:30.781Z,16.55
2023-03-24T18:34:40.818Z,16.55
2023-03-24T18:34:59.980Z,16.60
2023-03-24T18:35:11.160Z,16.60
2023-03-24T18:35:21.184Z,16.62
2023-03-24T18:35:32.067Z,16.62
2023-03-24T18:35:41.504Z,16.63
2023-03-24T18:35:51.518Z,16.65
2023-03-24T18:36:01.612Z,16.66
2023-03-24T18:36:12.080Z,16.67
2023-03-24T18:36:22.125Z,16.66
2023-03-24T18:36:32.203Z,16.66
2023-03-24T18:36:42.181Z,16.67
2023-03-24T18:36:52.877Z,16.69
2023-03-24T18:37:02.382Z,16.70
2023-03-24T18:37:12.455Z,16.70
2023-03-24T18:37:22.664Z,16.72
2023-03-24T18:37:33.198Z,16.73
2023-03-24T18:37:42.859Z,16.75
2023-03-24T18:37:53.108Z,16.77
2023-03-24T18:38:04.164Z,16.78
2023-03-24T18:38:13.438Z,16.80
2023-03-24T18:38:23.308Z,16.80
2023-03-24T18:38:33.478Z,16.80
2023-03-24T18:38:43.487Z,16.82
2023-03-24T18:38:53.728Z,16.84
2023-03-24T18:39:13.875Z,16.87
2023-03-24T18:39:24.061Z,16.87
2023-03-24T18:39:34.285Z,16.90
2023-03-24T18:39:44.272Z,16.92
2023-03-24T18:39:54.491Z,16.92
2023-03-24T18:40:04.623Z,16.95
2023-03-24T18:40:14.785Z,16.96
2023-03-24T18:40:24.929Z,17.00
2023-03-24T18:40:35.075Z,17.02
2023-03-24T18:40:45.150Z,17.03
2023-03-24T18:40:55.320Z,17.05
2023-03-24T18:41:05.620Z,17.06
2023-03-24T18:41:16.652Z,17.07
2023-03-24T18:41:25.747Z,17.09
2023-03-24T18:41:35.669Z,17.12
2023-03-24T18:41:45.824Z,17.15
2023-03-24T18:41:55.957Z,17.15
2023-03-24T18:42:05.934Z,17.20
2023-03-24T18:42:26.554Z,17.22
2023-03-24T18:42:36.736Z,17.20
2023-03-24T18:42:46.632Z,17.21
2023-03-24T18:42:56.748Z,17.18
2023-03-24T18:43:06.968Z,17.18
2023-03-24T18:43:17.006Z,17.18
2023-03-24T18:43:27.024Z,17.15
2023-03-24T18:43:37.286Z,17.12
2023-03-24T18:43:47.351Z,17.07
2023-03-24T18:43:57.397Z,17.06
2023-03-24T18:44:08.274Z,17.03
2023-03-24T18:44:17.709Z,16.99
2023-03-24T18:44:27.724Z,16.96
2023-03-24T18:44:38.013Z,16.95
2023-03-24T18:44:48.107Z,16.92
2023-03-24T18:44:58.610Z,16.92
2023-03-24T18:45:19.478Z,16.88
2023-03-24T18:45:29.045Z,16.88
2023-03-24T18:45:38.571Z,16.87
2023-03-24T18:45:48.844Z,16.87
2023-03-24T18:45:58.869Z,16.85
2023-03-24T18:46:08.950Z,16.87
2023-03-24T18:46:29.157Z,16.87
2023-03-24T18:46:40.252Z,16.85
2023-03-24T18:46:49.643Z,16.82
2023-03-24T18:46:59.513Z,16.84
2023-03-24T18:47:09.723Z,16.82
2023-03-24T18:47:19.804Z,16.81
2023-03-24T18:47:30.034Z,16.80
2023-03-24T18:47:50.775Z,16.80
2023-03-24T18:48:00.489Z,16.81
2023-03-24T18:48:10.584Z,16.81
2023-03-24T18:48:23.878Z,16.80
2023-03-24T18:48:30.814Z,16.78
2023-03-24T18:48:40.938Z,16.81
2023-03-24T18:48:51.774Z,16.82
2023-03-24T18:49:01.005Z,16.82
2023-03-24T18:49:11.148Z,16.82
2023-03-24T18:49:31.634Z,16.84
2023-03-24T18:49:41.579Z,16.82
2023-03-24T18:49:51.733Z,16.81
2023-03-24T18:50:01.722Z,16.80
2023-03-24T18:50:12.646Z,16.81
2023-03-24T18:50:21.976Z,16.80
2023-03-24T18:50:31.989Z,16.80
2023-03-24T18:50:42.086Z,16.80
2023-03-24T18:50:52.415Z,16.78
2023-03-24T18:51:02.498Z,16.78
2023-03-24T18:51:22.541Z,16.78
2023-03-24T18:51:32.843Z,16.77
2023-03-24T18:51:43.050Z,16.73
2023-03-24T18:51:53.096Z,16.72
2023-03-24T18:52:03.280Z,16.69
2023-03-24T18:52:13.154Z,16.66
2023-03-24T18:52:23.297Z,16.63
2023-03-24T18:55:26.306Z,16.36
2023-03-24T18:55:37.449Z,16.36
2023-03-24T18:55:48.489Z,16.34
2023-03-24T18:55:57.717Z,16.32
2023-03-24T18:56:07.728Z,16.32
2023-03-24T18:56:17.836Z,16.29
2023-03-24T18:56:28.036Z,16.26
2023-03-24T18:56:39.114Z,16.27
2023-03-24T18:56:58.346Z,16.25
2023-03-24T18:57:08.440Z,16.22
2023-03-24T18:57:18.663Z,16.22
2023-03-24T18:57:28.642Z,16.22
2023-03-24T18:57:38.904Z,16.23
2023-03-24T18:57:48.921Z,16.23
2023-03-24T18:58:00.106Z,16.25
2023-03-24T18:58:09.336Z,16.25
2023-03-24T18:58:19.931Z,16.26
2023-03-24T18:58:29.659Z,16.26
2023-03-24T18:58:40.716Z,16.29
2023-03-24T18:58:51.590Z,16.29
2023-03-24T18:59:10.165Z,16.33
2023-03-24T18:59:20.308Z,16.34
2023-03-24T18:59:31.143Z,16.36
2023-03-24T18:59:40.408Z,16.40
2023-03-24T18:59:50.563Z,16.41
2023-03-24T19:00:00.806Z,16.42
2023-03-24T19:00:10.861Z,16.42
2023-03-24T19:00:20.998Z,16.44
2023-03-24T19:00:41.685Z,16.48
2023-03-24T19:00:51.318Z,16.50
2023-03-24T19:01:02.747Z,16.51
2023-03-24T19:01:11.688Z,16.51
2023-03-24T19:01:21.831Z,16.54
2023-03-24T19:01:31.895Z,16.54
2023-03-24T19:01:42.096Z,16.55
2023-03-24T19:01:52.158Z,16.57
2023-03-24T19:02:12.501Z,16.57
2023-03-24T19:02:23.439Z,16.59
2023-03-24T19:02:32.577Z,16.59
2023-03-24T19:02:42.805Z,16.60
2023-03-24T19:02:53.032Z,16.60
2023-03-24T19:03:03.043Z,16.60
2023-03-24T19:03:13.298Z,16.59
2023-03-24T19:03:32.429Z,16.55
2023-03-24T19:03:43.528Z,16.55
2023-03-24T19:03:53.631Z,16.54
2023-03-24T19:04:04.526Z,16.52
2023-03-24T19:04:13.851Z,16.51
2023-03-24T19:04:24.001Z,16.47
2023-03-24T19:04:34.199Z,16.45
2023-03-24T19:04:44.377Z,16.44
2023-03-24T19:04:55.067Z,16.41
2023-03-24T19:05:04.515Z,16.40
2023-03-24T19:05:14.706Z,16.40
2023-03-24T19:05:24.878Z,16.37
2023-03-24T19:05:34.985Z,16.41
2023-03-24T19:05:45.250Z,16.40
2023-03-24T19:05:56.185Z,16.37
2023-03-24T19:06:05.451Z,16.37
2023-03-24T19:06:15.502Z,16.34
2023-03-24T19:06:25.773Z,16.30
2023-03-24T19:06:35.809Z,16.27
2023-03-24T19:06:45.961Z,16.23
2023-03-24T19:06:56.703Z,16.17
2023-03-24T19:07:06.187Z,16.13
2023-03-24T19:07:16.360Z,16.08
2023-03-24T19:07:26.676Z,16.04
2023-03-24T19:07:36.710Z,15.98
2023-03-24T19:07:46.772Z,15.92
2023-03-24T19:07:56.847Z,15.86
2023-03-24T19:08:07.322Z,15.84
2023-03-24T19:08:19.851Z,15.80
2023-03-24T19:08:27.313Z,15.80
2023-03-24T19:08:37.673Z,15.78
2023-03-24T19:08:48.636Z,15.78
2023-03-24T19:08:57.671Z,15.77
2023-03-24T19:09:07.725Z,15.78
2023-03-24T19:09:27.049Z,15.80
2023-03-24T19:09:38.423Z,15.81
2023-03-24T19:09:48.372Z,15.84
2023-03-24T19:09:58.692Z,15.84
2023-03-24T19:10:08.558Z,15.86
2023-03-24T19:10:19.609Z,15.85
2023-03-24T19:10:28.914Z,15.86
2023-03-24T19:10:39.239Z,15.86
2023-03-24T19:10:49.699Z,15.86
2023-03-24T19:10:59.273Z,15.85
2023-03-24T19:11:09.366Z,15.88
2023-03-24T19:11:20.560Z,15.86
2023-03-24T19:11:29.766Z,15.85
2023-03-24T19:11:41.471Z,15.86
2023-03-24T19:11:49.798Z,15.86
2023-03-24T19:12:00.258Z,15.88
2023-03-24T19:12:10.299Z,15.92
2023-03-24T19:12:30.452Z,15.93
2023-03-24T19:12:40.475Z,15.93
2023-03-24T19:12:50.647Z,15.95
2023-03-24T19:13:00.899Z,15.98
